sensor_id;sensor_type;location;lat;lon;timestamp;pressure;altitude;pressure_sealevel;temperature;humidity
27429;BME280;14881;48.092;11.574;2023-08-12T00:00:45;95935.38;;;14.78;100.00
27429;BME280;14881;48.092;11.574;2023-08-12T00:03:11;95933.56;;;14.73;100.00
27429;BME280;14881;48.092;11.574;2023-08-12T00:05:38;95940.94;;;14.73;100.00
27429;BME280;14881;48.092;11.574;2023-08-12T00:08:05;95940.84;;;14.78;100.00
27429;BME280;14881;48.092;11.574;2023-08-12T00:10:32;95939.44;;;14.80;100.00
27429;BME280;14881;48.092;11.574;2023-08-12T00:12:59;95930.66;;;14.70;100.00
27429;BME280;14881;48.092;11.574;2023-08-12T00:15:26;95934.09;;;14.61;100.00
27429;BME280;14881;48.092;11.574;2023-08-12T00:17:52;95935.00;;;14.57;100.00
27429;BME280;14881;48.092;11.574;2023-08-12T00:20:19;95934.00;;;14.53;100.00
27429;BME280;14881;48.092;11.574;2023-08-12T00:22:45;95928.63;;;14.48;100.00
27429;BME280;14881;48.092;11.574;2023-08-12T00:25:11;95927.09;;;14.42;100.00
27429;BME280;14881;48.092;11.574;2023-08-12T00:27:38;95923.63;;;14.36;100.00
27429;BME280;14881;48.092;11.574;2023-08-12T00:30:06;95925.84;;;14.34;100.00
27429;BME280;14881;48.092;11.574;2023-08-12T00:32:33;95923.13;;;14.34;100.00
27429;BME280;14881;48.092;11.574;2023-08-12T00:34:59;95927.19;;;14.37;100.00
27429;BME280;14881;48.092;11.574;2023-08-12T00:37:25;95922.63;;;14.32;100.00
27429;BME280;14881;48.092;11.574;2023-08-12T00:39:52;95911.06;;;14.35;100.00
27429;BME280;14881;48.092;11.574;2023-08-12T00:42:18;95913.72;;;14.40;100.00
27429;BME280;14881;48.092;11.574;2023-08-12T00:44:44;95906.91;;;14.38;100.00
27429;BME280;14881;48.092;11.574;2023-08-12T00:47:12;95910.78;;;14.37;100.00
27429;BME280;14881;48.092;11.574;2023-08-12T00:49:40;95918.56;;;14.29;100.00
27429;BME280;14881;48.092;11.574;2023-08-12T00:52:09;95908.53;;;14.25;100.00
27429;BME280;14881;48.092;11.574;2023-08-12T00:54:35;95912.50;;;14.19;100.00
27429;BME280;14881;48.092;11.574;2023-08-12T00:57:02;95903.34;;;14.10;100.00
27429;BME280;14881;48.092;11.574;2023-08-12T00:59:29;95900.84;;;14.13;100.00
27429;BME280;14881;48.092;11.574;2023-08-12T01:01:55;95909.41;;;14.07;100.00
27429;BME280;14881;48.092;11.574;2023-08-12T01:04:22;95906.47;;;14.03;100.00
27429;BME280;14881;48.092;11.574;2023-08-12T01:06:49;95902.75;;;13.99;100.00
27429;BME280;14881;48.092;11.574;2023-08-12T01:09:15;95905.66;;;14.03;100.00
27429;BME280;14881;48.092;11.574;2023-08-12T01:11:48;95906.97;;;14.05;100.00
27429;BME280;14881;48.092;11.574;2023-08-12T01:14:22;95907.09;;;14.00;100.00
27429;BME280;14881;48.092;11.574;2023-08-12T01:16:51;95902.81;;;13.94;100.00
27429;BME280;14881;48.092;11.574;2023-08-12T01:19:29;95893.91;;;13.88;100.00
27429;BME280;14881;48.092;11.574;2023-08-12T01:21:59;95886.00;;;13.87;100.00
27429;BME280;14881;48.092;11.574;2023-08-12T01:24:26;95887.44;;;13.84;100.00
27429;BME280;14881;48.092;11.574;2023-08-12T01:26:53;95886.81;;;13.87;100.00
27429;BME280;14881;48.092;11.574;2023-08-12T01:29:21;95889.47;;;13.92;100.00
27429;BME280;14881;48.092;11.574;2023-08-12T01:31:51;95884.59;;;13.89;100.00
27429;BME280;14881;48.092;11.574;2023-08-12T01:34:26;95889.03;;;13.85;100.00
27429;BME280;14881;48.092;11.574;2023-08-12T01:36:56;95889.97;;;13.81;100.00
27429;BME280;14881;48.092;11.574;2023-08-12T01:39:26;95876.97;;;13.73;100.00
27429;BME280;14881;48.092;11.574;2023-08-12T01:41:54;95878.19;;;13.67;100.00
27429;BME280;14881;48.092;11.574;2023-08-12T01:44:21;95876.94;;;13.59;100.00
27429;BME280;14881;48.092;11.574;2023-08-12T01:46:48;95877.47;;;13.61;100.00
27429;BME280;14881;48.092;11.574;2023-08-12T01:49:15;95879.81;;;13.68;100.00
27429;BME280;14881;48.092;11.574;2023-08-12T01:51:41;95883.34;;;13.68;100.00
27429;BME280;14881;48.092;11.574;2023-08-12T01:54:08;95880.78;;;13.58;100.00
27429;BME280;14881;48.092;11.574;2023-08-12T01:56:35;95879.47;;;13.55;100.00
27429;BME280;14881;48.092;11.574;2023-08-12T01:59:01;95874.59;;;13.52;100.00
27429;BME280;14881;48.092;11.574;2023-08-12T02:01:27;95872.50;;;13.49;100.00
27429;BME280;14881;48.092;11.574;2023-08-12T02:03:54;95867.69;;;13.41;100.00
27429;BME280;14881;48.092;11.574;2023-08-12T02:06:21;95870.06;;;13.48;100.00
27429;BME280;14881;48.092;11.574;2023-08-12T02:08:47;95867.31;;;13.48;100.00
27429;BME280;14881;48.092;11.574;2023-08-12T02:11:13;95865.25;;;13.40;100.00
27429;BME280;14881;48.092;11.574;2023-08-12T02:13:40;95868.69;;;13.32;100.00
27429;BME280;14881;48.092;11.574;2023-08-12T02:16:07;95864.03;;;13.32;100.00
27429;BME280;14881;48.092;11.574;2023-08-12T02:18:34;95862.50;;;13.26;100.00
27429;BME280;14881;48.092;11.574;2023-08-12T02:21:01;95854.38;;;13.21;100.00
27429;BME280;14881;48.092;11.574;2023-08-12T02:23:27;95852.47;;;13.21;100.00
27429;BME280;14881;48.092;11.574;2023-08-12T02:25:53;95845.09;;;13.22;100.00
27429;BME280;14881;48.092;11.574;2023-08-12T02:28:20;95840.03;;;13.15;100.00
27429;BME280;14881;48.092;11.574;2023-08-12T02:30:47;95842.78;;;13.10;100.00
27429;BME280;14881;48.092;11.574;2023-08-12T02:33:13;95843.69;;;13.06;100.00
27429;BME280;14881;48.092;11.574;2023-08-12T02:35:40;95837.41;;;13.05;100.00
27429;BME280;14881;48.092;11.574;2023-08-12T02:38:06;95842.66;;;13.02;100.00
27429;BME280;14881;48.092;11.574;2023-08-12T02:40:32;95847.09;;;12.98;100.00
27429;BME280;14881;48.092;11.574;2023-08-12T02:42:59;95839.50;;;12.95;100.00
27429;BME280;14881;48.092;11.574;2023-08-12T02:45:25;95840.09;;;12.92;100.00
27429;BME280;14881;48.092;11.574;2023-08-12T02:47:52;95836.84;;;12.89;100.00
27429;BME280;14881;48.092;11.574;2023-08-12T02:50:19;95827.31;;;12.87;100.00
27429;BME280;14881;48.092;11.574;2023-08-12T02:52:45;95833.31;;;12.89;100.00
27429;BME280;14881;48.092;11.574;2023-08-12T02:55:11;95829.19;;;12.92;100.00
27429;BME280;14881;48.092;11.574;2023-08-12T02:57:38;95826.22;;;12.88;100.00
27429;BME280;14881;48.092;11.574;2023-08-12T03:00:05;95815.38;;;12.83;100.00
27429;BME280;14881;48.092;11.574;2023-08-12T03:02:33;95812.16;;;12.81;100.00
27429;BME280;14881;48.092;11.574;2023-08-12T03:05:00;95822.34;;;12.75;100.00
27429;BME280;14881;48.092;11.574;2023-08-12T03:07:27;95822.03;;;12.77;100.00
27429;BME280;14881;48.092;11.574;2023-08-12T03:09:53;95831.09;;;12.72;100.00
27429;BME280;14881;48.092;11.574;2023-08-12T03:12:19;95820.72;;;12.74;100.00
27429;BME280;14881;48.092;11.574;2023-08-12T03:14:46;95821.53;;;12.75;100.00
27429;BME280;14881;48.092;11.574;2023-08-12T03:17:12;95823.50;;;12.69;100.00
27429;BME280;14881;48.092;11.574;2023-08-12T03:19:39;95830.63;;;12.65;100.00
27429;BME280;14881;48.092;11.574;2023-08-12T03:22:06;95828.53;;;12.62;100.00
27429;BME280;14881;48.092;11.574;2023-08-12T03:24:32;95831.91;;;12.54;100.00
27429;BME280;14881;48.092;11.574;2023-08-12T03:26:59;95829.22;;;12.49;100.00
27429;BME280;14881;48.092;11.574;2023-08-12T03:29:25;95817.81;;;12.47;100.00
27429;BME280;14881;48.092;11.574;2023-08-12T03:31:52;95826.50;;;12.49;100.00
27429;BME280;14881;48.092;11.574;2023-08-12T03:34:18;95823.50;;;12.50;100.00
27429;BME280;14881;48.092;11.574;2023-08-12T03:36:44;95823.78;;;12.49;100.00
27429;BME280;14881;48.092;11.574;2023-08-12T03:39:14;95819.53;;;12.43;100.00
27429;BME280;14881;48.092;11.574;2023-08-12T03:41:41;95819.81;;;12.41;100.00
27429;BME280;14881;48.092;11.574;2023-08-12T03:44:07;95826.06;;;12.42;100.00
27429;BME280;14881;48.092;11.574;2023-08-12T03:46:34;95822.03;;;12.39;100.00
27429;BME280;14881;48.092;11.574;2023-08-12T03:49:00;95821.72;;;12.41;100.00
27429;BME280;14881;48.092;11.574;2023-08-12T03:51:26;95819.75;;;12.46;100.00
27429;BME280;14881;48.092;11.574;2023-08-12T03:53:53;95826.81;;;12.47;100.00
27429;BME280;14881;48.092;11.574;2023-08-12T03:56:20;95820.47;;;12.52;100.00
27429;BME280;14881;48.092;11.574;2023-08-12T03:58:46;95818.19;;;12.40;100.00
27429;BME280;14881;48.092;11.574;2023-08-12T04:01:13;95824.16;;;12.42;100.00
27429;BME280;14881;48.092;11.574;2023-08-12T04:03:39;95817.16;;;12.36;100.00
27429;BME280;14881;48.092;11.574;2023-08-12T04:06:05;95819.13;;;12.31;100.00
27429;BME280;14881;48.092;11.574;2023-08-12T04:08:32;95809.03;;;12.31;100.00
27429;BME280;14881;48.092;11.574;2023-08-12T04:10:59;95819.44;;;12.29;100.00
27429;BME280;14881;48.092;11.574;2023-08-12T04:13:26;95816.34;;;12.36;100.00
27429;BME280;14881;48.092;11.574;2023-08-12T04:15:52;95821.16;;;12.44;100.00
27429;BME280;14881;48.092;11.574;2023-08-12T04:18:19;95824.41;;;12.46;100.00
27429;BME280;14881;48.092;11.574;2023-08-12T04:20:45;95818.63;;;12.47;100.00
27429;BME280;14881;48.092;11.574;2023-08-12T04:23:12;95819.00;;;12.41;100.00
27429;BME280;14881;48.092;11.574;2023-08-12T04:25:39;95823.66;;;12.40;100.00
27429;BME280;14881;48.092;11.574;2023-08-12T04:28:05;95816.00;;;12.42;100.00
27429;BME280;14881;48.092;11.574;2023-08-12T04:30:32;95811.34;;;12.43;100.00
27429;BME280;14881;48.092;11.574;2023-08-12T04:32:59;95821.22;;;12.39;100.00
27429;BME280;14881;48.092;11.574;2023-08-12T04:35:25;95817.66;;;12.38;100.00
27429;BME280;14881;48.092;11.574;2023-08-12T04:37:51;95818.78;;;12.37;100.00
27429;BME280;14881;48.092;11.574;2023-08-12T04:40:18;95812.50;;;12.37;100.00
27429;BME280;14881;48.092;11.574;2023-08-12T04:42:44;95823.41;;;12.37;100.00
27429;BME280;14881;48.092;11.574;2023-08-12T04:45:11;95819.81;;;12.41;100.00
27429;BME280;14881;48.092;11.574;2023-08-12T04:47:38;95818.34;;;12.49;100.00
27429;BME280;14881;48.092;11.574;2023-08-12T04:50:05;95822.03;;;12.58;100.00
27429;BME280;14881;48.092;11.574;2023-08-12T04:52:32;95824.25;;;12.56;100.00
27429;BME280;14881;48.092;11.574;2023-08-12T04:54:58;95821.56;;;12.51;100.00
27429;BME280;14881;48.092;11.574;2023-08-12T04:57:25;95821.28;;;12.52;100.00
27429;BME280;14881;48.092;11.574;2023-08-12T04:59:53;95819.91;;;12.55;100.00
27429;BME280;14881;48.092;11.574;2023-08-12T05:02:19;95820.84;;;12.64;100.00
27429;BME280;14881;48.092;11.574;2023-08-12T05:04:48;95826.16;;;12.74;100.00
27429;BME280;14881;48.092;11.574;2023-08-12T05:07:15;95819.22;;;12.82;100.00
27429;BME280;14881;48.092;11.574;2023-08-12T05:09:42;95816.66;;;12.90;100.00
27429;BME280;14881;48.092;11.574;2023-08-12T05:12:09;95821.72;;;12.97;100.00
27429;BME280;14881;48.092;11.574;2023-08-12T05:14:36;95821.84;;;13.06;100.00
27429;BME280;14881;48.092;11.574;2023-08-12T05:17:03;95821.78;;;13.11;100.00
27429;BME280;14881;48.092;11.574;2023-08-12T05:19:30;95816.84;;;13.13;100.00
27429;BME280;14881;48.092;11.574;2023-08-12T05:21:57;95815.47;;;13.15;100.00
27429;BME280;14881;48.092;11.574;2023-08-12T05:24:23;95805.69;;;13.28;100.00
27429;BME280;14881;48.092;11.574;2023-08-12T05:26:50;95809.06;;;13.39;100.00
27429;BME280;14881;48.092;11.574;2023-08-12T05:29:16;95810.81;;;13.48;100.00
27429;BME280;14881;48.092;11.574;2023-08-12T05:31:43;95814.75;;;13.56;100.00
27429;BME280;14881;48.092;11.574;2023-08-12T05:34:09;95815.25;;;13.58;100.00
27429;BME280;14881;48.092;11.574;2023-08-12T05:36:36;95816.28;;;13.62;100.00
27429;BME280;14881;48.092;11.574;2023-08-12T05:39:03;95816.59;;;13.74;100.00
27429;BME280;14881;48.092;11.574;2023-08-12T05:41:30;95819.16;;;13.84;100.00
27429;BME280;14881;48.092;11.574;2023-08-12T05:43:56;95821.69;;;13.94;100.00
27429;BME280;14881;48.092;11.574;2023-08-12T05:46:22;95812.47;;;14.04;100.00
27429;BME280;14881;48.092;11.574;2023-08-12T05:48:49;95819.88;;;14.17;100.00
27429;BME280;14881;48.092;11.574;2023-08-12T05:51:15;95817.22;;;14.26;100.00
27429;BME280;14881;48.092;11.574;2023-08-12T05:53:41;95822.16;;;14.38;100.00
27429;BME280;14881;48.092;11.574;2023-08-12T05:56:08;95820.28;;;14.52;100.00
27429;BME280;14881;48.092;11.574;2023-08-12T05:58:35;95811.72;;;14.67;100.00
27429;BME280;14881;48.092;11.574;2023-08-12T06:01:02;95816.03;;;14.82;100.00
27429;BME280;14881;48.092;11.574;2023-08-12T06:03:28;95808.59;;;14.96;100.00
27429;BME280;14881;48.092;11.574;2023-08-12T06:05:55;95810.34;;;15.14;100.00
27429;BME280;14881;48.092;11.574;2023-08-12T06:08:21;95809.66;;;15.31;100.00
27429;BME280;14881;48.092;11.574;2023-08-12T06:10:48;95814.00;;;15.54;100.00
27429;BME280;14881;48.092;11.574;2023-08-12T06:13:15;95812.81;;;15.69;100.00
27429;BME280;14881;48.092;11.574;2023-08-12T06:15:41;95805.97;;;15.89;100.00
27429;BME280;14881;48.092;11.574;2023-08-12T06:18:08;95804.44;;;16.05;100.00
27429;BME280;14881;48.092;11.574;2023-08-12T06:20:34;95798.22;;;16.30;100.00
27429;BME280;14881;48.092;11.574;2023-08-12T06:23:01;95794.25;;;16.62;100.00
27429;BME280;14881;48.092;11.574;2023-08-12T06:25:27;95786.53;;;16.99;100.00
27429;BME280;14881;48.092;11.574;2023-08-12T06:27:54;95788.13;;;17.43;100.00
27429;BME280;14881;48.092;11.574;2023-08-12T06:30:21;95777.72;;;17.83;100.00
27429;BME280;14881;48.092;11.574;2023-08-12T06:32:47;95773.00;;;18.22;100.00
27429;BME280;14881;48.092;11.574;2023-08-12T06:35:14;95766.31;;;18.61;100.00
27429;BME280;14881;48.092;11.574;2023-08-12T06:37:40;95760.56;;;18.95;100.00
27429;BME280;14881;48.092;11.574;2023-08-12T06:40:08;95744.50;;;19.18;100.00
27429;BME280;14881;48.092;11.574;2023-08-12T06:42:34;95748.44;;;19.29;100.00
27429;BME280;14881;48.092;11.574;2023-08-12T06:45:01;95745.22;;;19.39;100.00
27429;BME280;14881;48.092;11.574;2023-08-12T06:47:30;95746.50;;;19.42;100.00
27429;BME280;14881;48.092;11.574;2023-08-12T06:49:56;95742.22;;;19.53;100.00
27429;BME280;14881;48.092;11.574;2023-08-12T06:52:23;95743.84;;;19.54;100.00
27429;BME280;14881;48.092;11.574;2023-08-12T06:54:49;95748.66;;;19.57;100.00
27429;BME280;14881;48.092;11.574;2023-08-12T06:57:15;95745.00;;;19.65;100.00
27429;BME280;14881;48.092;11.574;2023-08-12T06:59:42;95742.94;;;19.74;100.00
27429;BME280;14881;48.092;11.574;2023-08-12T07:02:08;95744.13;;;19.86;100.00
27429;BME280;14881;48.092;11.574;2023-08-12T07:04:36;95734.59;;;20.07;100.00
27429;BME280;14881;48.092;11.574;2023-08-12T07:07:02;95732.19;;;20.18;100.00
27429;BME280;14881;48.092;11.574;2023-08-12T07:09:29;95728.25;;;20.43;100.00
27429;BME280;14881;48.092;11.574;2023-08-12T07:11:55;95720.91;;;20.60;100.00
27429;BME280;14881;48.092;11.574;2023-08-12T07:14:21;95723.81;;;20.79;100.00
27429;BME280;14881;48.092;11.574;2023-08-12T07:16:48;95721.44;;;21.05;100.00
27429;BME280;14881;48.092;11.574;2023-08-12T07:19:14;95723.81;;;21.19;100.00
27429;BME280;14881;48.092;11.574;2023-08-12T07:21:43;95728.25;;;21.36;100.00
27429;BME280;14881;48.092;11.574;2023-08-12T07:24:09;95720.78;;;21.52;100.00
27429;BME280;14881;48.092;11.574;2023-08-12T07:26:36;95716.28;;;21.75;100.00
27429;BME280;14881;48.092;11.574;2023-08-12T07:29:02;95718.88;;;22.00;100.00
27429;BME280;14881;48.092;11.574;2023-08-12T07:31:29;95709.47;;;22.36;100.00
27429;BME280;14881;48.092;11.574;2023-08-12T07:33:55;95706.13;;;22.62;100.00
27429;BME280;14881;48.092;11.574;2023-08-12T07:36:22;95707.00;;;22.81;100.00
27429;BME280;14881;48.092;11.574;2023-08-12T07:38:49;95710.78;;;23.12;100.00
27429;BME280;14881;48.092;11.574;2023-08-12T07:41:15;95699.97;;;23.26;100.00
27429;BME280;14881;48.092;11.574;2023-08-12T07:43:42;95700.47;;;23.51;100.00
27429;BME280;14881;48.092;11.574;2023-08-12T07:46:08;95698.16;;;23.76;100.00
27429;BME280;14881;48.092;11.574;2023-08-12T07:48:36;95696.38;;;24.10;100.00
27429;BME280;14881;48.092;11.574;2023-08-12T07:51:03;95692.50;;;24.37;100.00
27429;BME280;14881;48.092;11.574;2023-08-12T07:53:30;95692.03;;;24.61;100.00
27429;BME280;14881;48.092;11.574;2023-08-12T07:55:57;95688.50;;;24.91;100.00
27429;BME280;14881;48.092;11.574;2023-08-12T07:58:23;95694.38;;;25.16;100.00
27429;BME280;14881;48.092;11.574;2023-08-12T08:00:52;95695.53;;;25.45;100.00
27429;BME280;14881;48.092;11.574;2023-08-12T08:03:19;95693.06;;;25.73;100.00
27429;BME280;14881;48.092;11.574;2023-08-12T08:05:45;95696.47;;;25.96;100.00
27429;BME280;14881;48.092;11.574;2023-08-12T08:08:13;95703.66;;;26.01;100.00
27429;BME280;14881;48.092;11.574;2023-08-12T08:10:39;95700.06;;;25.97;100.00
27429;BME280;14881;48.092;11.574;2023-08-12T08:13:06;95694.13;;;26.02;100.00
27429;BME280;14881;48.092;11.574;2023-08-12T08:15:32;95697.50;;;26.25;100.00
27429;BME280;14881;48.092;11.574;2023-08-12T08:17:59;95693.16;;;26.28;100.00
27429;BME280;14881;48.092;11.574;2023-08-12T08:20:28;95699.97;;;26.30;100.00
27429;BME280;14881;48.092;11.574;2023-08-12T08:22:54;95692.50;;;26.42;100.00
27429;BME280;14881;48.092;11.574;2023-08-12T08:25:21;95697.34;;;26.55;100.00
27429;BME280;14881;48.092;11.574;2023-08-12T08:27:47;95695.47;;;26.66;100.00
27429;BME280;14881;48.092;11.574;2023-08-12T08:30:15;95700.34;;;26.84;100.00
27429;BME280;14881;48.092;11.574;2023-08-12T08:32:41;95693.56;;;26.88;100.00
27429;BME280;14881;48.092;11.574;2023-08-12T08:35:08;95689.63;;;26.93;100.00
27429;BME280;14881;48.092;11.574;2023-08-12T08:37:34;95696.50;;;27.10;100.00
27429;BME280;14881;48.092;11.574;2023-08-12T08:40:00;95691.81;;;27.28;100.00
27429;BME280;14881;48.092;11.574;2023-08-12T08:42:27;95692.69;;;27.53;100.00
27429;BME280;14881;48.092;11.574;2023-08-12T08:44:58;95691.97;;;27.74;100.00
27429;BME280;14881;48.092;11.574;2023-08-12T08:47:27;95690.34;;;27.73;100.00
27429;BME280;14881;48.092;11.574;2023-08-12T08:49:55;95693.53;;;27.61;100.00
27429;BME280;14881;48.092;11.574;2023-08-12T08:52:23;95691.56;;;27.65;100.00
27429;BME280;14881;48.092;11.574;2023-08-12T08:54:52;95693.97;;;27.91;100.00
27429;BME280;14881;48.092;11.574;2023-08-12T08:57:19;95694.81;;;28.17;100.00
27429;BME280;14881;48.092;11.574;2023-08-12T08:59:49;95687.25;;;28.31;100.00
27429;BME280;14881;48.092;11.574;2023-08-12T09:02:24;95693.66;;;28.39;100.00
27429;BME280;14881;48.092;11.574;2023-08-12T09:04:52;95697.25;;;28.39;100.00
27429;BME280;14881;48.092;11.574;2023-08-12T09:07:20;95692.41;;;28.15;100.00
27429;BME280;14881;48.092;11.574;2023-08-12T09:09:48;95695.25;;;28.22;100.00
27429;BME280;14881;48.092;11.574;2023-08-12T09:12:18;95700.78;;;28.12;100.00
27429;BME280;14881;48.092;11.574;2023-08-12T09:14:45;95701.59;;;28.12;100.00
27429;BME280;14881;48.092;11.574;2023-08-12T09:17:12;95705.59;;;28.18;100.00
27429;BME280;14881;48.092;11.574;2023-08-12T09:19:38;95703.19;;;28.06;100.00
27429;BME280;14881;48.092;11.574;2023-08-12T09:22:07;95698.38;;;28.06;100.00
27429;BME280;14881;48.092;11.574;2023-08-12T09:24:35;95701.16;;;27.92;100.00
27429;BME280;14881;48.092;11.574;2023-08-12T09:27:01;95707.94;;;27.81;100.00
27429;BME280;14881;48.092;11.574;2023-08-12T09:29:30;95706.34;;;27.69;100.00
27429;BME280;14881;48.092;11.574;2023-08-12T09:32:05;95702.72;;;27.72;100.00
27429;BME280;14881;48.092;11.574;2023-08-12T09:34:32;95700.34;;;27.88;100.00
27429;BME280;14881;48.092;11.574;2023-08-12T09:36:58;95705.19;;;28.13;100.00
27429;BME280;14881;48.092;11.574;2023-08-12T09:39:25;95699.63;;;28.52;100.00
27429;BME280;14881;48.092;11.574;2023-08-12T09:41:53;95704.00;;;28.88;100.00
27429;BME280;14881;48.092;11.574;2023-08-12T09:44:19;95706.75;;;29.06;100.00
27429;BME280;14881;48.092;11.574;2023-08-12T09:46:46;95701.16;;;28.95;100.00
27429;BME280;14881;48.092;11.574;2023-08-12T09:49:13;95705.56;;;28.75;100.00
27429;BME280;14881;48.092;11.574;2023-08-12T09:51:41;95703.59;;;28.68;100.00
27429;BME280;14881;48.092;11.574;2023-08-12T09:54:12;95706.44;;;28.51;100.00
27429;BME280;14881;48.092;11.574;2023-08-12T09:56:47;95707.63;;;28.21;100.00
27429;BME280;14881;48.092;11.574;2023-08-12T09:59:16;95706.38;;;27.97;100.00
27429;BME280;14881;48.092;11.574;2023-08-12T10:01:45;95707.53;;;27.75;100.00
27429;BME280;14881;48.092;11.574;2023-08-12T10:04:13;95701.97;;;27.82;100.00
27429;BME280;14881;48.092;11.574;2023-08-12T10:06:41;95704.38;;;27.94;100.00
27429;BME280;14881;48.092;11.574;2023-08-12T10:09:09;95705.16;;;28.05;100.00
27429;BME280;14881;48.092;11.574;2023-08-12T10:11:37;95687.63;;;28.05;100.00
27429;BME280;14881;48.092;11.574;2023-08-12T10:14:04;95689.63;;;27.97;100.00
27429;BME280;14881;48.092;11.574;2023-08-12T10:16:31;95686.84;;;28.04;100.00
27429;BME280;14881;48.092;11.574;2023-08-12T10:18:59;95687.25;;;28.31;100.00
27429;BME280;14881;48.092;11.574;2023-08-12T10:21:27;95687.63;;;28.80;100.00
27429;BME280;14881;48.092;11.574;2023-08-12T10:23:53;95688.81;;;28.89;100.00
27429;BME280;14881;48.092;11.574;2023-08-12T10:26:20;95691.16;;;29.05;100.00
27429;BME280;14881;48.092;11.574;2023-08-12T10:28:49;95682.38;;;29.06;100.00
27429;BME280;14881;48.092;11.574;2023-08-12T10:31:19;95693.97;;;28.94;100.00
27429;BME280;14881;48.092;11.574;2023-08-12T10:33:46;95695.22;;;28.83;100.00
27429;BME280;14881;48.092;11.574;2023-08-12T10:36:15;95691.22;;;28.80;100.00
27429;BME280;14881;48.092;11.574;2023-08-12T10:38:45;95687.16;;;29.02;100.00
27429;BME280;14881;48.092;11.574;2023-08-12T10:41:18;95686.25;;;29.41;100.00
27429;BME280;14881;48.092;11.574;2023-08-12T10:43:52;95694.81;;;29.82;100.00
27429;BME280;14881;48.092;11.574;2023-08-12T10:46:28;95680.31;;;30.01;100.00
27429;BME280;14881;48.092;11.574;2023-08-12T10:48:59;95683.59;;;30.44;100.00
27429;BME280;14881;48.092;11.574;2023-08-12T10:51:43;95691.69;;;30.80;100.00
27429;BME280;14881;48.092;11.574;2023-08-12T10:54:14;95681.31;;;31.14;100.00
27429;BME280;14881;48.092;11.574;2023-08-12T10:57:09;95682.81;;;31.53;100.00
27429;BME280;14881;48.092;11.574;2023-08-12T10:59:52;95674.97;;;31.41;100.00
27429;BME280;14881;48.092;11.574;2023-08-12T11:02:21;95674.53;;;31.08;100.00
27429;BME280;14881;48.092;11.574;2023-08-12T11:04:50;95670.50;;;31.13;100.00
27429;BME280;14881;48.092;11.574;2023-08-12T11:07:19;95670.09;;;31.14;100.00
27429;BME280;14881;48.092;11.574;2023-08-12T11:09:50;95661.94;;;31.24;100.00
27429;BME280;14881;48.092;11.574;2023-08-12T11:12:18;95662.88;;;31.44;100.00
27429;BME280;14881;48.092;11.574;2023-08-12T11:14:48;95662.97;;;31.37;100.00
27429;BME280;14881;48.092;11.574;2023-08-12T11:17:15;95662.31;;;31.56;100.00
27429;BME280;14881;48.092;11.574;2023-08-12T11:19:42;95652.19;;;31.66;95.79
27429;BME280;14881;48.092;11.574;2023-08-12T11:22:10;95648.84;;;31.10;93.16
27429;BME280;14881;48.092;11.574;2023-08-12T11:24:40;95657.03;;;30.56;97.21
27429;BME280;14881;48.092;11.574;2023-08-12T11:27:09;95658.38;;;31.20;92.83
27429;BME280;14881;48.092;11.574;2023-08-12T11:29:37;95650.91;;;31.70;98.11
27429;BME280;14881;48.092;11.574;2023-08-12T11:32:05;95642.63;;;32.13;94.13
27429;BME280;14881;48.092;11.574;2023-08-12T11:34:31;95643.53;;;32.34;85.61
27429;BME280;14881;48.092;11.574;2023-08-12T11:36:59;95639.34;;;32.42;84.10
27429;BME280;14881;48.092;11.574;2023-08-12T11:39:26;95634.63;;;32.59;80.91
27429;BME280;14881;48.092;11.574;2023-08-12T11:41:53;95629.63;;;32.70;79.84
27429;BME280;14881;48.092;11.574;2023-08-12T11:44:21;95628.88;;;32.66;80.28
27429;BME280;14881;48.092;11.574;2023-08-12T11:46:48;95625.59;;;32.91;79.49
27429;BME280;14881;48.092;11.574;2023-08-12T11:49:14;95628.16;;;32.85;74.07
27429;BME280;14881;48.092;11.574;2023-08-12T11:51:41;95625.47;;;32.98;74.73
27429;BME280;14881;48.092;11.574;2023-08-12T11:54:09;95621.81;;;33.01;77.08
27429;BME280;14881;48.092;11.574;2023-08-12T11:56:36;95619.06;;;33.17;74.68
27429;BME280;14881;48.092;11.574;2023-08-12T11:59:03;95619.78;;;33.21;74.36
27429;BME280;14881;48.092;11.574;2023-08-12T12:01:31;95617.84;;;33.38;71.26
27429;BME280;14881;48.092;11.574;2023-08-12T12:03:59;95622.16;;;33.23;71.12
27429;BME280;14881;48.092;11.574;2023-08-12T12:06:31;95621.91;;;32.74;73.38
27429;BME280;14881;48.092;11.574;2023-08-12T12:09:00;95617.56;;;32.46;71.98
27429;BME280;14881;48.092;11.574;2023-08-12T12:11:29;95614.88;;;32.62;77.28
27429;BME280;14881;48.092;11.574;2023-08-12T12:13:56;95623.22;;;33.09;73.87
27429;BME280;14881;48.092;11.574;2023-08-12T12:16:22;95610.16;;;33.18;69.53
27429;BME280;14881;48.092;11.574;2023-08-12T12:18:48;95607.84;;;32.94;71.38
27429;BME280;14881;48.092;11.574;2023-08-12T12:21:20;95612.44;;;32.41;68.83
27429;BME280;14881;48.092;11.574;2023-08-12T12:23:47;95604.97;;;32.54;74.09
27429;BME280;14881;48.092;11.574;2023-08-12T12:26:13;95606.97;;;32.77;74.53
27429;BME280;14881;48.092;11.574;2023-08-12T12:28:40;95599.94;;;32.65;68.28
27429;BME280;14881;48.092;11.574;2023-08-12T12:31:07;95599.94;;;32.18;74.28
27429;BME280;14881;48.092;11.574;2023-08-12T12:33:34;95601.84;;;32.48;74.78
27429;BME280;14881;48.092;11.574;2023-08-12T12:36:00;95596.53;;;32.54;75.78
27429;BME280;14881;48.092;11.574;2023-08-12T12:38:31;95596.59;;;32.27;73.52
27429;BME280;14881;48.092;11.574;2023-08-12T12:40:57;95597.09;;;32.22;75.48